Time;durP1;ratioP1;P1;durP2;ratioP2;P2;SDS_P1;SDS_P2;PMS_P1;PMS_P2;Temp;Humidity;BMP_temperature;BMP_pressure;BME280_temperature;BME280_humidity;BME280_pressure;Samples;Min_cycle;Max_cycle;Signal;HPM_P1;HPM_P2
2023/07/22 00:02:10;;;;;;;11.15;3.28;;;;;;;19.74;nan;100120.50;5016743;28;20467;-72
2023/07/22 00:04:36;;;;;;;10.18;3.33;;;;;;;19.68;nan;100092.28;5018341;28;20105;-72
2023/07/22 00:07:01;;;;;;;7.03;3.22;;;;;;;19.69;nan;100091.19;5018942;28;20025;-72
2023/07/22 00:09:26;;;;;;;10.18;3.80;;;;;;;19.69;nan;100107.22;5035043;28;20048;-74
2023/07/22 00:11:52;;;;;;;7.55;3.70;;;;;;;19.80;nan;100117.75;5019759;28;20041;-72
2023/07/22 00:14:17;;;;;;;8.27;3.80;;;;;;;19.76;nan;100120.22;5031827;28;20033;-74
2023/07/22 00:16:43;;;;;;;10.63;3.88;;;;;;;19.76;nan;100121.00;5015838;28;20065;-73
2023/07/22 00:19:08;;;;;;;10.45;4.10;;;;;;;19.67;nan;100104.03;5020834;28;20103;-73
2023/07/22 00:21:34;;;;;;;8.60;3.88;;;;;;;19.69;nan;100107.22;5017298;28;20130;-75
2023/07/22 00:24:00;;;;;;;9.05;3.95;;;;;;;19.71;nan;100110.41;5020741;28;20045;-74
2023/07/22 00:26:25;;;;;;;7.22;3.92;;;;;;;19.69;nan;100104.56;5017207;28;20801;-74
2023/07/22 00:28:51;;;;;;;10.02;4.32;;;;;;;19.69;nan;100087.75;5019741;28;20034;-74
2023/07/22 00:31:16;;;;;;;7.43;3.83;;;;;;;19.66;nan;100074.94;5017263;28;20112;-73
2023/07/22 00:33:42;;;;;;;9.30;4.20;;;;;;;19.73;nan;100092.22;5017223;28;20493;-72
2023/07/22 00:36:07;;;;;;;11.07;4.20;;;;;;;19.75;nan;100098.06;5018444;28;20114;-73
2023/07/22 00:38:33;;;;;;;11.95;4.30;;;;;;;19.76;nan;100093.50;5016937;28;20026;-72
2023/07/22 00:40:58;;;;;;;8.93;4.13;;;;;;;19.75;nan;100098.06;5015753;28;20517;-73
2023/07/22 00:43:25;;;;;;;12.43;4.05;;;;;;;19.75;nan;100099.91;5024663;28;20045;-73
2023/07/22 00:45:51;;;;;;;10.32;3.88;;;;;;;19.75;nan;100095.38;5030935;28;20025;-73
2023/07/22 00:48:17;;;;;;;8.63;3.83;;;;;;;19.68;nan;100110.19;5018723;28;20096;-73
2023/07/22 00:50:43;;;;;;;8.02;3.90;;;;;;;19.75;nan;100127.44;5018856;28;20306;-73
2023/07/22 00:53:09;;;;;;;11.70;4.60;;;;;;;19.72;nan;100119.19;5014807;28;20387;-74
2023/07/22 00:55:35;;;;;;;9.07;4.38;;;;;;;19.69;nan;100122.47;5017047;28;20029;-71
2023/07/22 00:58:01;;;;;;;9.85;4.35;;;;;;;19.71;nan;100126.44;5016377;28;20037;-72
2023/07/22 01:00:26;;;;;;;11.23;4.57;;;;;;;19.75;nan;100140.81;5010094;28;20029;-72
2023/07/22 01:02:52;;;;;;;9.27;4.50;;;;;;;19.74;nan;100133.06;5015455;28;20440;-73
2023/07/22 01:05:17;;;;;;;7.82;4.55;;;;;;;19.71;nan;100134.44;5021999;28;20029;-72
2023/07/22 01:07:44;;;;;;;14.43;4.82;;;;;;;19.63;nan;100110.25;5034787;28;20080;-73
2023/07/22 01:10:09;;;;;;;13.98;4.82;;;;;;;19.72;nan;100138.69;5019125;28;20068;-73
2023/07/22 01:12:35;;;;;;;10.40;4.65;;;;;;;19.69;nan;100141.97;5017749;28;20048;-72
2023/07/22 01:15:03;;;;;;;11.05;4.75;;;;;;;19.65;nan;100130.22;5017592;28;20022;-72
2023/07/22 01:17:29;;;;;;;15.00;5.28;;;;;;;19.75;nan;100150.66;5017635;28;20496;-72
2023/07/22 01:19:55;;;;;;;8.98;4.72;;;;;;;19.68;nan;100163.59;5014389;28;20029;-72
2023/07/22 01:22:21;;;;;;;13.18;4.93;;;;;;;19.68;nan;100166.28;5019277;28;20053;-73
2023/07/22 01:24:47;;;;;;;10.75;5.10;;;;;;;19.72;nan;100175.31;5017685;28;20026;-73
2023/07/22 01:27:14;;;;;;;14.48;5.63;;;;;;;19.70;nan;100170.25;5015917;28;20109;-73
2023/07/22 01:29:39;;;;;;;8.18;4.45;;;;;;;19.79;nan;100182.97;5018930;28;20045;-74
2023/07/22 01:32:05;;;;;;;10.82;5.13;;;;;;;19.68;nan;100161.75;5018294;28;20533;-72
2023/07/22 01:34:31;;;;;;;10.32;5.30;;;;;;;19.68;nan;100168.94;5019426;28;20053;-73
2023/07/22 01:36:57;;;;;;;10.00;5.25;;;;;;;19.68;nan;100163.59;5016986;28;20022;-73
2023/07/22 01:39:22;;;;;;;13.63;5.72;;;;;;;19.71;nan;100169.19;5018218;28;20036;-72
2023/07/22 01:41:48;;;;;;;11.95;5.53;;;;;;;19.56;nan;100150.66;5020178;28;20498;-72
2023/07/22 01:44:14;;;;;;;10.20;5.35;;;;;;;19.72;nan;100180.66;5021302;28;20041;-71
2023/07/22 01:46:41;;;;;;;11.88;5.68;;;;;;;19.78;nan;100195.53;5015141;28;20029;-72
2023/07/22 01:49:09;;;;;;;10.70;5.45;;;;;;;19.73;nan;100196.41;5016560;28;20025;-73
2023/07/22 01:51:37;;;;;;;14.13;5.72;;;;;;;19.79;nan;100199.78;5015527;28;20040;-73
2023/07/22 01:54:03;;;;;;;10.10;5.18;;;;;;;19.80;nan;100192.56;5024806;28;20507;-72
2023/07/22 01:56:28;;;;;;;12.27;5.15;;;;;;;19.76;nan;100185.13;5021352;28;20068;-71
2023/07/22 01:58:54;;;;;;;12.32;5.80;;;;;;;19.72;nan;100186.78;5023542;28;20061;-72
2023/07/22 02:01:19;;;;;;;13.03;5.33;;;;;;;19.71;nan;100187.88;5022563;28;20065;-73
2023/07/22 02:03:46;;;;;;;11.93;5.38;;;;;;;19.71;nan;100193.22;5022400;28;20310;-72
2023/07/22 02:06:11;;;;;;;14.27;6.03;;;;;;;19.72;nan;100192.13;5019730;28;20416;-72
2023/07/22 02:08:37;;;;;;;11.20;5.75;;;;;;;19.55;nan;100160.56;5018217;28;20057;-73
2023/07/22 02:11:04;;;;;;;9.82;5.65;;;;;;;19.75;nan;100190.75;5019205;28;20033;-73
2023/07/22 02:13:33;;;;;;;11.52;6.20;;;;;;;19.82;nan;100198.41;5023929;28;20029;-73
2023/07/22 02:16:00;;;;;;;12.65;6.40;;;;;;;19.80;nan;100195.22;5020965;28;20021;-73
2023/07/22 02:18:25;;;;;;;14.05;6.82;;;;;;;19.80;nan;100185.34;5022056;28;20510;-73
2023/07/22 02:20:51;;;;;;;12.98;6.07;;;;;;;19.74;nan;100187.28;5021321;28;20034;-73
2023/07/22 02:23:16;;;;;;;12.55;6.43;;;;;;;19.80;nan;100197.88;5021897;28;20033;-73
2023/07/22 02:25:43;;;;;;;14.90;6.88;;;;;;;19.77;nan;100208.06;5021107;28;20710;-73
2023/07/22 02:28:09;;;;;;;14.38;6.60;;;;;;;19.72;nan;100208.16;5016716;28;20108;-72
2023/07/22 02:30:35;;;;;;;11.77;6.68;;;;;;;19.79;nan;100223.81;5020207;28;20109;-73
2023/07/22 02:33:02;;;;;;;10.48;6.28;;;;;;;19.81;nan;100234.22;5019472;28;20052;-73
2023/07/22 02:35:28;;;;;;;13.75;7.22;;;;;;;19.79;nan;100239.06;5020622;28;20634;-74
2023/07/22 02:37:54;;;;;;;12.68;6.50;;;;;;;19.69;nan;100223.97;5017935;28;20120;-73
2023/07/22 02:40:19;;;;;;;12.48;6.13;;;;;;;19.73;nan;100235.69;5034021;28;20120;-72
2023/07/22 02:42:45;;;;;;;17.73;6.70;;;;;;;19.80;nan;100249.47;5021391;28;20503;-73
2023/07/22 02:45:10;;;;;;;13.63;6.53;;;;;;;19.79;nan;100244.41;5020677;28;20060;-73
2023/07/22 02:47:36;;;;;;;12.68;7.10;;;;;;;19.81;nan;100243.03;5020141;28;20380;-72
2023/07/22 02:50:03;;;;;;;15.43;7.13;;;;;;;19.81;nan;100251.06;5034179;28;20084;-72
2023/07/22 02:52:28;;;;;;;13.55;6.95;;;;;;;19.79;nan;100252.44;5025191;28;20029;-72
2023/07/22 02:55:10;;;;;;;11.43;6.53;;;;;;;19.79;nan;100223.81;5022691;28;20029;-73
2023/07/22 02:57:37;;;;;;;14.95;7.15;;;;;;;19.79;nan;100221.16;5017806;28;20480;-72
2023/07/22 03:00:07;;;;;;;13.45;6.32;;;;;;;19.87;nan;100233.88;5020666;28;20037;-73
2023/07/22 03:02:33;;;;;;;12.30;6.40;;;;;;;19.87;nan;100238.41;5020484;28;20025;-72
2023/07/22 03:04:58;;;;;;;16.38;7.30;;;;;;;19.84;nan;100226.41;5017654;28;20021;-72
2023/07/22 03:07:26;;;;;;;13.70;6.53;;;;;;;19.85;nan;100216.50;5020325;28;20481;-75
2023/07/22 03:09:51;;;;;;;14.45;6.93;;;;;;;19.75;nan;100196.91;5020417;28;20030;-73
2023/07/22 03:12:17;;;;;;;12.30;6.85;;;;;;;19.53;nan;100169.94;5016161;28;20545;-74
2023/07/22 03:14:42;;;;;;;16.55;7.07;;;;;;;19.81;nan;100221.66;5017393;28;20036;-74
2023/07/22 03:17:08;;;;;;;18.33;7.38;;;;;;;19.82;nan;100211.75;5019548;28;20419;-72
2023/07/22 03:19:33;;;;;;;15.55;7.20;;;;;;;19.74;nan;100197.97;5018956;28;20437;-72
2023/07/22 03:21:58;;;;;;;14.73;7.40;;;;;;;19.67;nan;100210.88;5017817;28;20026;-72
2023/07/22 03:24:25;;;;;;;12.88;6.88;;;;;;;19.74;nan;100227.38;5017865;28;20698;-71
2023/07/22 03:26:50;;;;;;;15.45;7.05;;;;;;;19.74;nan;100232.72;5019784;28;20025;-72
2023/07/22 03:29:16;;;;;;;16.48;7.00;;;;;;;19.84;nan;100230.97;5015743;28;20031;-72
2023/07/22 03:31:41;;;;;;;14.45;7.10;;;;;;;19.78;nan;100222.25;5016091;28;20041;-72
2023/07/22 03:34:07;;;;;;;15.27;7.03;;;;;;;19.77;nan;100234.78;5025299;28;20064;-72
2023/07/22 03:36:35;;;;;;;11.55;6.70;;;;;;;19.68;nan;100233.88;5015886;28;20041;-73
2023/07/22 03:39:01;;;;;;;15.02;7.55;;;;;;;19.79;nan;100245.19;5021230;28;20037;-72
2023/07/22 03:41:26;;;;;;;15.02;7.53;;;;;;;19.82;nan;100249.16;5025268;28;20034;-72
2023/07/22 03:43:51;;;;;;;12.38;7.10;;;;;;;19.71;nan;100235.19;5017798;28;20046;-72
2023/07/22 03:46:17;;;;;;;15.52;7.43;;;;;;;19.77;nan;100237.47;5017639;28;20034;-72
2023/07/22 03:48:42;;;;;;;17.50;7.97;;;;;;;19.76;nan;100219.84;5016724;28;20323;-72
2023/07/22 03:51:07;;;;;;;16.80;7.50;;;;;;;19.81;nan;100235.03;5031422;28;20029;-72
2023/07/22 03:53:33;;;;;;;19.00;7.00;;;;;;;19.79;nan;100239.06;5020042;28;20029;-72
2023/07/22 03:55:58;;;;;;;15.07;7.95;;;;;;;19.87;nan;100249.91;5016768;28;20494;-72
2023/07/22 03:58:24;;;;;;;11.48;7.05;;;;;;;19.83;nan;100232.06;5024116;28;20056;-72
2023/07/22 04:00:49;;;;;;;11.77;6.75;;;;;;;19.91;nan;100242.09;5016855;28;20026;-71
2023/07/22 04:03:15;;;;;;;14.63;7.32;;;;;;;19.84;nan;100242.44;5020090;28;20029;-72
2023/07/22 04:05:40;;;;;;;15.75;7.18;;;;;;;19.90;nan;100251.19;5019655;28;20029;-72
2023/07/22 04:08:05;;;;;;;12.55;7.20;;;;;;;19.90;nan;100256.53;5018770;28;20447;-72
2023/07/22 04:10:31;;;;;;;14.63;7.53;;;;;;;19.74;nan;100238.06;5017356;28;20030;-73
2023/07/22 04:12:56;;;;;;;29.30;19.47;;;;;;;19.92;nan;100265.84;5025210;28;20026;-73
2023/07/22 04:15:21;;;;;;;17.95;7.47;;;;;;;19.98;nan;100286.06;5020619;28;20275;-73
2023/07/22 04:17:47;;;;;;;14.75;7.07;;;;;;;19.96;nan;100292.78;5021181;28;20082;-72
2023/07/22 04:20:12;;;;;;;13.15;7.05;;;;;;;19.96;nan;100290.09;5016215;28;20033;-73
2023/07/22 04:22:38;;;;;;;15.50;7.00;;;;;;;19.96;nan;100282.09;5020466;28;20112;-73
2023/07/22 04:25:04;;;;;;;12.23;6.88;;;;;;;19.93;nan;100285.34;5021912;28;20030;-73
2023/07/22 04:27:29;;;;;;;15.57;7.60;;;;;;;19.96;nan;100298.13;5021164;28;20035;-71
2023/07/22 04:29:55;;;;;;;10.70;6.90;;;;;;;19.72;nan;100261.59;5019420;28;20108;-72
2023/07/22 04:32:21;;;;;;;14.18;7.55;;;;;;;20.01;nan;100319.44;5020080;28;20087;-72
2023/07/22 04:34:46;;;;;;;14.05;7.03;;;;;;;19.98;nan;100320.81;5021401;28;20044;-72
2023/07/22 04:37:12;;;;;;;11.43;7.05;;;;;;;19.96;nan;100316.84;5020145;28;20029;-72
2023/07/22 04:39:38;;;;;;;12.60;7.38;;;;;;;19.94;nan;100313.66;5023043;28;20032;-72
2023/07/22 04:42:04;;;;;;;13.60;7.68;;;;;;;20.02;nan;100317.56;5024374;28;20033;-73
2023/07/22 04:44:29;;;;;;;12.43;7.35;;;;;;;19.99;nan;100318.91;5019040;28;20080;-72
2023/07/22 04:46:55;;;;;;;16.00;7.75;;;;;;;19.82;nan;100287.38;5019664;28;20030;-73
2023/07/22 04:49:21;;;;;;;15.88;8.55;;;;;;;19.87;nan;100299.88;5018853;28;20448;-70
2023/07/22 04:51:47;;;;;;;18.02;10.43;;;;;;;20.03;nan;100324.50;5019229;28;20419;-70
2023/07/22 04:54:12;;;;;;;17.92;11.77;;;;;;;20.04;nan;100320.72;5017794;28;20038;-71
2023/07/22 04:56:38;;;;;;;16.48;10.15;;;;;;;20.01;nan;100311.41;5019954;28;20033;-71
2023/07/22 04:59:04;;;;;;;18.75;10.23;;;;;;;20.07;nan;100326.31;5020343;28;20034;-70
2023/07/22 05:01:29;;;;;;;19.58;11.45;;;;;;;20.05;nan;100322.34;5016777;28;20036;-70
2023/07/22 05:03:55;;;;;;;21.38;16.38;;;;;;;20.05;nan;100308.97;5011183;28;20076;-71
2023/07/22 05:06:21;;;;;;;25.05;16.02;;;;;;;20.07;nan;100310.25;5014463;28;20471;-72
2023/07/22 05:08:46;;;;;;;21.77;14.32;;;;;;;20.06;nan;100303.31;5017133;28;20133;-71
2023/07/22 05:11:12;;;;;;;21.23;13.43;;;;;;;20.15;nan;100309.59;5017421;28;20726;-72
2023/07/22 05:13:37;;;;;;;16.58;10.95;;;;;;;20.09;nan;100302.75;5016404;28;20028;-72
2023/07/22 05:16:03;;;;;;;17.05;10.43;;;;;;;20.12;nan;100315.53;5012959;28;20044;-72
2023/07/22 05:18:28;;;;;;;19.00;11.07;;;;;;;20.13;nan;100325.13;5018885;28;20029;-72
2023/07/22 05:20:54;;;;;;;18.38;11.25;;;;;;;20.17;nan;100336.06;5017403;28;20450;-72
2023/07/22 05:23:19;;;;;;;17.83;10.13;;;;;;;20.23;nan;100342.09;5011442;28;20026;-72
2023/07/22 05:25:51;;;;;;;17.88;9.52;;;;;;;20.21;nan;100337.06;5014023;28;20029;-74
2023/07/22 05:28:17;;;;;;;17.20;10.32;;;;;;;20.16;nan;100329.09;5014556;28;20036;-73
2023/07/22 05:30:42;;;;;;;13.48;9.50;;;;;;;20.12;nan;100334.25;5014378;28;20029;-72
2023/07/22 05:33:07;;;;;;;19.98;10.35;;;;;;;20.13;nan;100327.81;5012224;28;20058;-71
2023/07/22 05:35:33;;;;;;;17.55;11.20;;;;;;;20.22;nan;100337.84;5016275;28;20587;-74
2023/07/22 05:37:58;;;;;;;17.52;10.07;;;;;;;20.27;nan;100348.47;5017109;28;20026;-72
2023/07/22 05:40:24;;;;;;;18.80;11.75;;;;;;;20.29;nan;100349.78;5015709;28;20056;-73
2023/07/22 05:42:49;;;;;;;16.73;10.55;;;;;;;20.23;nan;100345.56;5020967;28;20577;-72
2023/07/22 05:45:16;;;;;;;15.95;11.15;;;;;;;20.25;nan;100338.06;5018098;28;20033;-73
2023/07/22 05:47:41;;;;;;;16.63;10.43;;;;;;;20.24;nan;100346.38;5018791;28;20048;-72
2023/07/22 05:50:07;;;;;;;18.42;11.23;;;;;;;20.30;nan;100358.56;5021302;28;20026;-73
2023/07/22 05:52:32;;;;;;;16.13;11.10;;;;;;;20.33;nan;100374.06;5019710;28;20114;-72
2023/07/22 05:54:58;;;;;;;17.10;10.70;;;;;;;20.32;nan;100362.53;5014059;28;20620;-72
2023/07/22 05:57:23;;;;;;;16.42;10.77;;;;;;;20.33;nan;100368.72;5016889;28;20085;-72
2023/07/22 05:59:48;;;;;;;15.95;10.63;;;;;;;20.37;nan;100367.81;5020400;28;20067;-72
2023/07/22 06:02:14;;;;;;;20.02;10.75;;;;;;;20.37;nan;100369.69;5014114;28;20029;-72
2023/07/22 06:04:39;;;;;;;16.80;11.15;;;;;;;20.37;nan;100375.06;5019727;28;20021;-73
2023/07/22 06:07:05;;;;;;;13.80;9.77;;;;;;;20.44;nan;100380.81;5020156;28;20542;-70
2023/07/22 06:09:31;;;;;;;19.05;10.30;;;;;;;20.43;nan;100389.94;5018484;28;20146;-73
2023/07/22 06:11:56;;;;;;;14.50;10.18;;;;;;;20.49;nan;100393.31;5020072;28;20792;-73
2023/07/22 06:14:21;;;;;;;18.55;10.18;;;;;;;20.48;nan;100387.19;5012761;28;20079;-72
2023/07/22 06:16:47;;;;;;;15.45;9.93;;;;;;;20.47;nan;100377.59;5021528;28;20034;-73
2023/07/22 06:19:12;;;;;;;17.80;10.70;;;;;;;20.53;nan;100379.09;5020498;28;20519;-72
2023/07/22 06:21:37;;;;;;;22.95;10.95;;;;;;;20.52;nan;100374.00;5019548;28;20030;-72
2023/07/22 06:24:03;;;;;;;15.10;10.98;;;;;;;20.53;nan;100372.94;5018403;28;20499;-72
2023/07/22 06:26:29;;;;;;;16.40;10.88;;;;;;;20.51;nan;100364.41;5021646;28;20180;-75
2023/07/22 06:28:54;;;;;;;16.80;10.82;;;;;;;20.61;nan;100391.03;5019304;28;20025;-75
2023/07/22 06:31:19;;;;;;;13.50;11.32;;;;;;;20.57;nan;100368.63;5019781;28;20040;-73
2023/07/22 06:33:45;;;;;;;17.52;11.57;;;;;;;20.59;nan;100371.78;5021324;28;20053;-72
2023/07/22 06:36:11;;;;;;;19.45;12.10;;;;;;;20.62;nan;100379.25;5020201;28;21012;-71
2023/07/22 06:38:36;;;;;;;17.23;11.55;;;;;;;20.67;nan;100381.06;5018509;28;20033;-73
2023/07/22 06:41:01;;;;;;;17.15;11.60;;;;;;;20.73;nan;100390.56;5019611;28;20033;-73
2023/07/22 06:43:27;;;;;;;17.70;11.98;;;;;;;20.72;nan;100394.34;5018538;28;20049;-75
2023/07/22 06:45:52;;;;;;;15.85;12.38;;;;;;;20.62;nan;100367.75;5020217;28;20033;-71
2023/07/22 06:48:18;;;;;;;19.20;12.30;;;;;;;20.75;nan;100380.38;5018841;28;20052;-72
2023/07/22 06:50:49;;;;;;;16.95;13.23;;;;;;;20.72;nan;100378.28;5019983;28;20440;-73
2023/07/22 06:53:15;;;;;;;18.40;13.07;;;;;;;20.68;nan;100371.94;5020364;28;20044;-73
2023/07/22 06:55:47;;;;;;;20.20;13.73;;;;;;;20.76;nan;100381.97;5023334;28;20032;-72
2023/07/22 06:58:13;;;;;;;22.13;14.32;;;;;;;20.77;nan;100394.25;5018949;28;20037;-70
2023/07/22 07:00:39;;;;;;;28.00;15.52;;;;;;;20.80;nan;100397.13;5019968;28;20120;-73
2023/07/22 07:03:04;;;;;;;24.90;15.93;;;;;;;20.81;nan;100392.59;5020418;28;20029;-72
2023/07/22 07:05:29;;;;;;;21.95;14.88;;;;;;;20.77;nan;100386.22;5034492;28;20072;-70
2023/07/22 07:07:55;;;;;;;19.20;14.77;;;;;;;20.91;nan;100405.78;5021844;28;20033;-75
2023/07/22 07:10:20;;;;;;;20.60;15.30;;;;;;;20.88;nan;100401.03;5019916;28;20039;-72
2023/07/22 07:12:46;;;;;;;21.25;14.68;;;;;;;20.88;nan;100397.53;5020022;28;20030;-73
2023/07/22 07:15:14;;;;;;;19.65;14.55;;;;;;;20.85;nan;100393.56;5022184;28;20129;-74
2023/07/22 07:17:39;;;;;;;16.95;14.07;;;;;;;20.90;nan;100401.53;5016875;28;20022;-72
2023/07/22 07:20:05;;;;;;;20.13;15.60;;;;;;;20.97;nan;100401.97;5021486;28;20368;-72
2023/07/22 07:22:31;;;;;;;24.30;15.38;;;;;;;20.98;nan;100403.53;5017838;28;20037;-72
2023/07/22 07:24:59;;;;;;;16.90;13.55;;;;;;;21.06;nan;100404.72;5018269;28;20054;-70
2023/07/22 07:27:24;;;;;;;19.17;14.50;;;;;;;21.06;nan;100403.94;5020439;28;20124;-74
2023/07/22 07:29:50;;;;;;;18.40;14.30;;;;;;;21.14;nan;100422.81;5019966;28;20112;-70
2023/07/22 07:32:15;;;;;;;17.13;13.73;;;;;;;21.11;nan;100407.31;5029980;28;20282;-72
2023/07/22 07:34:40;;;;;;;18.85;13.75;;;;;;;21.25;nan;100426.09;5016874;28;20475;-73
2023/07/22 07:37:06;;;;;;;19.55;13.57;;;;;;;21.26;nan;100424.97;5019247;28;20025;-71
2023/07/22 07:39:31;;;;;;;21.00;14.18;;;;;;;21.29;nan;100427.09;5018111;28;20033;-73
2023/07/22 07:41:57;;;;;;;20.00;16.05;;;;;;;21.28;nan;100417.44;5019590;28;20506;-73
2023/07/22 07:44:22;;;;;;;21.90;15.57;;;;;;;21.43;nan;100449.38;5016808;28;20400;-71
2023/07/22 07:46:47;;;;;;;17.30;14.07;;;;;;;21.38;nan;100424.50;5016263;28;20112;-71
2023/07/22 07:49:13;;;;;;;18.63;13.70;;;;;;;21.52;nan;100449.44;5016020;28;20116;-72
2023/07/22 07:51:39;;;;;;;22.10;13.65;;;;;;;21.50;nan;100448.16;5018853;28;20037;-71
2023/07/22 07:54:06;;;;;;;16.27;12.88;;;;;;;21.51;nan;100441.72;5016585;28;20369;-71
2023/07/22 07:56:32;;;;;;;17.17;12.80;;;;;;;21.66;nan;100468.22;5015811;28;20045;-72
2023/07/22 07:58:57;;;;;;;18.63;13.05;;;;;;;21.66;nan;100460.19;5018317;28;20017;-73
2023/07/22 08:01:23;;;;;;;17.70;13.43;;;;;;;21.81;nan;100461.75;5019252;28;20400;-72
2023/07/22 08:03:48;;;;;;;17.55;13.05;;;;;;;21.96;nan;100476.78;5018156;28;20044;-72
2023/07/22 08:06:14;;;;;;;14.55;12.10;;;;;;;22.07;nan;100478.91;5017422;28;20025;-72
2023/07/22 08:08:39;;;;;;;20.77;11.90;;;;;;;22.12;nan;100469.97;5016266;28;20040;-71
2023/07/22 08:11:16;;;;;;;17.05;11.68;;;;;;;22.19;nan;100465.00;5018410;28;20021;-73
2023/07/22 08:13:43;;;;;;;16.67;11.50;;;;;;;22.22;nan;100469.00;5018171;28;20051;-71
2023/07/22 08:16:10;;;;;;;16.38;11.77;;;;;;;22.32;nan;100476.84;5020491;28;20479;-71
2023/07/22 08:18:36;;;;;;;20.13;12.90;;;;;;;22.37;nan;100484.00;5015339;28;20038;-71
2023/07/22 08:21:03;;;;;;;19.20;11.52;;;;;;;22.49;nan;100484.25;5032514;28;20170;-72
2023/07/22 08:23:29;;;;;;;16.73;11.00;;;;;;;22.51;nan;100480.16;5015629;28;20036;-72
2023/07/22 08:25:54;;;;;;;15.88;11.52;;;;;;;22.56;nan;100478.47;5019316;28;20021;-72
2023/07/22 08:28:20;;;;;;;15.52;11.32;;;;;;;22.59;nan;100478.66;5016939;28;20555;-72
2023/07/22 08:30:45;;;;;;;18.30;11.43;;;;;;;22.69;nan;100483.78;5015630;28;20029;-73
2023/07/22 08:33:11;;;;;;;17.35;12.18;;;;;;;22.81;nan;100488.59;5017357;28;20083;-72
2023/07/22 08:35:37;;;;;;;20.88;11.52;;;;;;;22.88;nan;100480.13;5019135;28;20021;-71
2023/07/22 08:38:03;;;;;;;14.50;10.80;;;;;;;22.91;nan;100474.13;5014631;28;20026;-71
2023/07/22 08:40:39;;;;;;;17.33;11.43;;;;;;;22.92;nan;100471.16;5018862;28;21883;-71
2023/07/22 08:43:07;;;;;;;13.18;10.65;;;;;;;22.95;nan;100475.13;5018286;28;20129;-73
2023/07/22 08:45:37;;;;;;;17.88;10.65;;;;;;;23.09;nan;100480.47;5034473;28;20033;-72
2023/07/22 08:48:12;;;;;;;13.52;10.20;;;;;;;23.18;nan;100484.00;5020254;28;20147;-72
2023/07/22 08:50:53;;;;;;;14.77;9.93;;;;;;;23.17;nan;100489.66;5018559;28;20037;-72
2023/07/22 08:53:23;;;;;;;14.90;9.50;;;;;;;23.17;nan;100476.22;5017080;28;20084;-71
2023/07/22 08:55:49;;;;;;;11.55;8.13;;;;;;;23.23;nan;100477.69;5019697;28;20065;-70
2023/07/22 08:58:16;;;;;;;11.38;9.18;;;;;;;23.18;nan;100470.56;5019707;28;20456;-70
2023/07/22 09:00:42;;;;;;;11.48;9.20;;;;;;;23.33;nan;100480.13;5015545;28;20097;-69
2023/07/22 09:03:08;;;;;;;14.50;8.55;;;;;;;23.33;nan;100470.16;5017575;28;20439;-68
2023/07/22 09:05:35;;;;;;;14.20;8.80;;;;;;;23.42;nan;100469.41;5015511;28;20103;-68
2023/07/22 09:08:06;;;;;;;15.20;8.52;;;;;;;23.49;nan;100475.94;5021450;28;20039;-71
2023/07/22 09:10:32;;;;;;;12.88;9.38;;;;;;;23.57;nan;100480.53;5018345;28;20329;-73
2023/07/22 09:12:59;;;;;;;9.75;8.43;;;;;;;23.61;nan;100478.03;5019245;28;20053;-71
2023/07/22 09:15:25;;;;;;;13.88;8.40;;;;;;;23.73;nan;100490.91;5018548;28;20033;-72
2023/07/22 09:17:51;;;;;;;10.88;8.13;;;;;;;23.71;nan;100476.97;5016682;28;20431;-73
2023/07/22 09:20:16;;;;;;;9.65;7.78;;;;;;;23.75;nan;100481.44;5017540;28;20077;-70
2023/07/22 09:22:51;;;;;;;13.88;8.10;;;;;;;23.88;nan;100484.31;5014884;28;20048;-73
2023/07/22 09:25:17;;;;;;;11.27;7.95;;;;;;;24.03;nan;100502.69;5015865;28;20371;-71
2023/07/22 09:27:43;;;;;;;9.52;7.20;;;;;;;24.09;nan;100489.91;5019677;28;20026;-71
2023/07/22 09:30:20;;;;;;;12.35;7.13;;;;;;;24.20;nan;100491.97;5018628;28;20017;-71
2023/07/22 09:32:45;;;;;;;11.07;7.80;;;;;;;24.32;nan;100491.34;5016605;28;20037;-72
2023/07/22 09:35:10;;;;;;;10.25;7.68;;;;;;;24.41;nan;100496.75;5017165;28;20025;-71
2023/07/22 09:37:39;;;;;;;8.20;6.80;;;;;;;24.42;nan;100492.94;5017999;28;20040;-71
2023/07/22 09:40:16;;;;;;;13.50;7.10;;;;;;;24.42;nan;100499.16;5016520;28;21258;-71
2023/07/22 09:42:49;;;;;;;8.43;6.88;;;;;;;24.40;nan;100493.28;5017552;28;20061;-70
2023/07/22 09:45:16;;;;;;;10.77;7.70;;;;;;;24.38;nan;100487.41;5017908;28;20094;-70
2023/07/22 09:47:44;;;;;;;9.95;7.50;;;;;;;24.50;nan;100497.59;5011208;28;20033;-70
2023/07/22 09:50:24;;;;;;;11.55;7.60;;;;;;;24.37;nan;100467.00;5015995;28;20049;-72
2023/07/22 09:52:54;;;;;;;9.13;6.93;;;;;;;24.57;nan;100487.16;5020664;28;20022;-72
2023/07/22 09:55:28;;;;;;;9.35;7.15;;;;;;;24.54;nan;100466.25;5007088;28;20038;-73
2023/07/22 09:57:58;;;;;;;9.95;6.85;;;;;;;24.66;nan;100478.25;5029038;28;20057;-73
2023/07/22 10:00:27;;;;;;;12.70;7.45;;;;;;;24.79;nan;100482.69;5011675;28;20030;-74
2023/07/22 10:02:55;;;;;;;12.38;6.53;;;;;;;24.89;nan;100492.34;5010709;28;20037;-74
2023/07/22 10:05:22;;;;;;;14.82;7.20;;;;;;;24.86;nan;100484.91;5009555;28;20038;-73
2023/07/22 10:07:47;;;;;;;12.13;7.43;;;;;;;24.98;nan;100493.13;5011987;28;20029;-72
2023/07/22 10:10:15;;;;;;;10.25;7.07;;;;;;;25.00;nan;100488.22;5010556;28;20032;-72
2023/07/22 10:12:42;;;;;;;8.60;6.63;;;;;;;25.02;nan;100485.97;5016003;28;20025;-73
2023/07/22 10:15:13;;;;;;;9.35;6.88;;;;;;;24.97;nan;100484.28;5017608;28;20026;-73
2023/07/22 10:17:43;;;;;;;9.27;7.00;;;;;;;24.92;nan;100475.53;5018676;28;20030;-73
2023/07/22 10:20:15;;;;;;;7.38;6.22;;;;;;;24.79;nan;100456.56;5015248;28;20124;-75
2023/07/22 10:22:44;;;;;;;9.77;6.57;;;;;;;24.93;nan;100471.75;5017645;28;20028;-74
2023/07/22 10:25:12;;;;;;;9.50;6.72;;;;;;;24.94;nan;100471.41;5021519;28;20032;-74
2023/07/22 10:27:39;;;;;;;6.13;5.53;;;;;;;25.04;nan;100483.75;5018629;28;20160;-74
2023/07/22 10:30:06;;;;;;;8.13;5.47;;;;;;;25.12;nan;100477.56;5024680;28;20025;-74
2023/07/22 10:32:36;;;;;;;8.07;5.35;;;;;;;25.26;nan;100469.31;5017467;28;20053;-73
2023/07/22 10:35:03;;;;;;;11.15;5.28;;;;;;;25.33;nan;100464.22;5034732;28;20091;-74
2023/07/22 10:37:35;;;;;;;9.27;5.95;;;;;;;25.49;nan;100477.16;5019986;28;20117;-75
2023/07/22 10:40:27;;;;;;;8.65;6.00;;;;;;;25.60;nan;100479.19;5020740;28;20481;-74
2023/07/22 10:43:04;;;;;;;7.93;6.10;;;;;;;25.47;nan;100427.03;5017750;28;20069;-75
2023/07/22 10:45:31;;;;;;;7.85;5.47;;;;;;;25.78;nan;100457.50;5022991;28;20033;-74
2023/07/22 10:48:06;;;;;;;7.95;6.18;;;;;;;25.91;nan;100475.41;5022147;28;20322;-75
2023/07/22 10:50:41;;;;;;;11.57;6.10;;;;;;;25.90;nan;100465.72;5024396;28;20487;-75
2023/07/22 10:53:20;;;;;;;8.95;5.68;;;;;;;25.84;nan;100450.81;5019290;28;20064;-74
2023/07/22 10:56:08;;;;;;;;;;;;;;;26.06;nan;100472.13;5020915;28;20391;-75
2023/07/22 10:58:53;;;;;;;7.38;6.07;;;;;;;26.06;nan;100485.63;5019250;28;19928;-74
2023/07/22 11:01:24;;;;;;;9.77;6.25;;;;;;;25.98;nan;100473.00;5020796;28;20040;-75
2023/07/22 11:04:31;;;;;;;7.88;6.05;;;;;;;26.01;nan;100482.34;5018443;28;20022;-73
2023/07/22 11:07:04;;;;;;;9.80;5.97;;;;;;;25.91;nan;100470.00;5033210;28;20067;-72
2023/07/22 11:09:30;;;;;;;9.00;5.82;;;;;;;26.01;nan;100483.13;5018410;28;20476;-71
2023/07/22 11:11:58;;;;;;;8.98;6.00;;;;;;;26.06;nan;100490.25;5015904;28;20052;-72
2023/07/22 11:14:28;;;;;;;8.48;4.95;;;;;;;26.01;nan;100471.53;5015743;28;20404;-71
2023/07/22 11:16:57;;;;;;;7.35;4.88;;;;;;;26.09;nan;100481.47;5014487;28;20026;-72
2023/07/22 11:19:23;;;;;;;7.57;5.80;;;;;;;26.09;nan;100468.75;5018715;28;20174;-73
2023/07/22 11:21:50;;;;;;;7.57;5.00;;;;;;;26.30;nan;100489.59;5018817;28;20539;-73
2023/07/22 11:24:16;;;;;;;6.55;5.40;;;;;;;26.29;nan;100488.81;5032070;28;20431;-73
2023/07/22 11:26:41;;;;;;;6.90;5.32;;;;;;;26.30;nan;100484.19;5020018;28;20062;-73
2023/07/22 11:29:08;;;;;;;7.25;5.00;;;;;;;26.32;nan;100481.97;5032780;28;20117;-73
2023/07/22 11:31:42;;;;;;;6.00;4.80;;;;;;;26.26;nan;100459.75;5015628;28;20511;-72